Time;durP1;ratioP1;P1;durP2;ratioP2;P2;SDS_P1;SDS_P2;PMS_P1;PMS_P2;Temp;Humidity;BMP_temperature;BMP_pressure;BME280_temperature;BME280_humidity;BME280_pressure;Samples;Min_cycle;Max_cycle;Signal;HPM_P1;HPM_P2
2023/06/15 00:00:29;;;;;;;2.58;2.38;;;;;;;;;;5060616;28;20183;-51
2023/06/15 00:02:55;;;;;;;3.67;2.83;;;;;;;;;;5059501;28;20558;-50
2023/06/15 00:05:21;;;;;;;3.92;2.38;;;;;;;;;;5067890;28;20468;-50
2023/06/15 00:07:47;;;;;;;2.60;2.40;;;;;;;;;;5069020;28;20542;-50
2023/06/15 00:10:14;;;;;;;2.35;2.15;;;;;;;;;;5073428;28;20187;-49
2023/06/15 00:12:40;;;;;;;3.75;2.38;;;;;;;;;;5061667;28;20312;-50
2023/06/15 00:15:06;;;;;;;5.03;2.15;;;;;;;;;;5057116;28;20266;-50
2023/06/15 00:17:37;;;;;;;2.60;2.40;;;;;;;;;;5061975;28;20202;-50
2023/06/15 00:20:03;;;;;;;3.38;2.30;;;;;;;;;;5055899;28;20183;-50
2023/06/15 00:22:29;;;;;;;2.67;2.47;;;;;;;;;;5062060;28;20204;-50
2023/06/15 00:24:55;;;;;;;2.88;2.38;;;;;;;;;;5068163;28;20199;-50
2023/06/15 00:27:22;;;;;;;2.50;2.30;;;;;;;;;;5065005;28;20186;-50
2023/06/15 00:29:48;;;;;;;3.42;2.25;;;;;;;;;;5054228;28;20229;-50
2023/06/15 00:32:13;;;;;;;2.63;2.42;;;;;;;;;;5059175;28;20559;-50
2023/06/15 00:34:39;;;;;;;2.42;2.20;;;;;;;;;;5064008;28;20183;-49
2023/06/15 00:37:05;;;;;;;2.60;2.22;;;;;;;;;;5063010;28;20290;-54
2023/06/15 00:39:31;;;;;;;3.03;2.58;;;;;;;;;;5064593;28;20201;-50
2023/06/15 00:41:57;;;;;;;2.42;2.22;;;;;;;;;;5064106;28;20266;-50
2023/06/15 00:44:23;;;;;;;3.05;2.75;;;;;;;;;;5066921;28;20216;-50
2023/06/15 00:46:49;;;;;;;2.50;2.30;;;;;;;;;;5062395;28;20330;-50
2023/06/15 00:49:15;;;;;;;3.45;2.63;;;;;;;;;;5066672;28;20174;-50
2023/06/15 00:51:42;;;;;;;3.92;2.17;;;;;;;;;;5062813;28;21157;-50
2023/06/15 00:54:08;;;;;;;3.38;2.78;;;;;;;;;;5064536;28;20496;-50
2023/06/15 00:56:35;;;;;;;2.63;2.42;;;;;;;;;;5067820;28;20186;-50
2023/06/15 00:59:01;;;;;;;2.72;2.53;;;;;;;;;;5061006;28;20236;-50
2023/06/15 01:01:27;;;;;;;2.50;2.30;;;;;;;;;;5063460;28;20198;-49
2023/06/15 01:03:54;;;;;;;2.60;2.40;;;;;;;;;;5056604;28;20522;-50
2023/06/15 01:06:24;;;;;;;3.70;2.30;;;;;;;;;;5063139;28;20793;-50
2023/06/15 01:08:53;;;;;;;2.60;2.40;;;;;;;;;;5062848;28;20195;-50
2023/06/15 01:11:19;;;;;;;3.55;2.30;;;;;;;;;;5066276;28;20178;-50
2023/06/15 01:13:46;;;;;;;3.75;2.33;;;;;;;;;;5052816;28;20468;-50
2023/06/15 01:16:17;;;;;;;3.03;2.55;;;;;;;;;;5065044;28;20190;-50
2023/06/15 01:18:46;;;;;;;3.03;2.60;;;;;;;;;;5059972;28;20211;-50
2023/06/15 01:21:15;;;;;;;2.88;2.35;;;;;;;;;;5066921;28;20466;-50
2023/06/15 01:23:55;;;;;;;2.90;2.60;;;;;;;;;;5055293;28;20202;-50
2023/06/15 01:26:24;;;;;;;2.85;2.65;;;;;;;;;;5066782;28;20175;-50
2023/06/15 01:28:50;;;;;;;2.20;2.03;;;;;;;;;;5062230;28;20313;-50
2023/06/15 01:31:16;;;;;;;2.30;2.10;;;;;;;;;;5058937;28;20583;-50
2023/06/15 01:33:45;;;;;;;3.20;1.90;;;;;;;;;;5067214;28;20458;-50
2023/06/15 01:36:12;;;;;;;2.40;2.20;;;;;;;;;;5070488;28;20201;-50
2023/06/15 01:38:38;;;;;;;2.55;2.25;;;;;;;;;;5060201;28;20198;-50
2023/06/15 01:41:05;;;;;;;2.40;2.20;;;;;;;;;;5060964;28;20182;-50
2023/06/15 01:43:32;;;;;;;2.78;2.58;;;;;;;;;;5057794;28;20211;-50
2023/06/15 01:45:59;;;;;;;2.30;2.10;;;;;;;;;;5061120;28;20240;-50
2023/06/15 01:48:25;;;;;;;2.58;2.30;;;;;;;;;;5057133;28;20519;-50
2023/06/15 01:50:52;;;;;;;2.53;2.33;;;;;;;;;;5055785;28;20164;-49
2023/06/15 01:53:18;;;;;;;2.50;2.30;;;;;;;;;;5065069;28;20198;-50
2023/06/15 01:55:44;;;;;;;2.60;2.40;;;;;;;;;;5054459;28;20186;-50
2023/06/15 01:58:15;;;;;;;2.60;2.40;;;;;;;;;;5068345;28;20265;-50
2023/06/15 02:00:41;;;;;;;2.33;2.13;;;;;;;;;;5059681;28;20545;-50
2023/06/15 02:03:07;;;;;;;3.08;2.30;;;;;;;;;;5075135;28;20183;-50
2023/06/15 02:05:39;;;;;;;2.65;2.45;;;;;;;;;;5066184;28;20183;-50
2023/06/15 02:08:04;;;;;;;2.92;2.25;;;;;;;;;;5065144;28;20183;-50
2023/06/15 02:10:31;;;;;;;2.75;2.38;;;;;;;;;;5072467;28;20182;-49
2023/06/15 02:12:57;;;;;;;3.47;2.38;;;;;;;;;;5060641;28;20270;-50
2023/06/15 02:15:23;;;;;;;3.15;2.30;;;;;;;;;;5063618;28;20182;-50
2023/06/15 02:17:59;;;;;;;2.75;2.50;;;;;;;;;;5065476;28;20552;-50
2023/06/15 02:20:25;;;;;;;2.50;2.30;;;;;;;;;;5056851;28;20186;-50
2023/06/15 02:22:57;;;;;;;2.75;2.55;;;;;;;;;;5054749;28;20430;-50
2023/06/15 02:25:23;;;;;;;2.58;2.38;;;;;;;;;;5053228;28;20567;-50
2023/06/15 02:27:49;;;;;;;3.28;2.60;;;;;;;;;;5061177;28;20670;-51
2023/06/15 02:30:15;;;;;;;2.88;2.58;;;;;;;;;;5057500;28;20266;-50
2023/06/15 02:32:42;;;;;;;2.55;2.35;;;;;;;;;;5081950;28;20329;-50
2023/06/15 02:35:09;;;;;;;2.40;2.20;;;;;;;;;;5061757;28;20217;-50
2023/06/15 02:37:35;;;;;;;2.55;2.35;;;;;;;;;;5066027;28;20190;-49
2023/06/15 02:40:03;;;;;;;3.00;2.70;;;;;;;;;;5056560;28;20180;-50
2023/06/15 02:42:29;;;;;;;4.50;2.83;;;;;;;;;;5068602;28;20182;-50
2023/06/15 02:44:55;;;;;;;2.72;2.47;;;;;;;;;;5047436;28;20687;-50
2023/06/15 02:47:21;;;;;;;3.65;2.63;;;;;;;;;;5053831;28;20183;-50
2023/06/15 02:49:47;;;;;;;2.55;2.35;;;;;;;;;;5058300;28;20257;-50
2023/06/15 02:52:13;;;;;;;2.95;2.42;;;;;;;;;;5056479;28;20510;-50
2023/06/15 02:54:39;;;;;;;2.90;2.33;;;;;;;;;;5080381;28;20231;-49
2023/06/15 02:57:08;;;;;;;2.67;2.47;;;;;;;;;;5067412;28;20193;-50
2023/06/15 02:59:35;;;;;;;2.83;2.47;;;;;;;;;;5054966;28;20187;-50
2023/06/15 03:02:04;;;;;;;2.72;2.33;;;;;;;;;;5056267;28;20187;-50
2023/06/15 03:04:30;;;;;;;2.47;2.28;;;;;;;;;;5055799;28;20463;-50
2023/06/15 03:06:57;;;;;;;2.75;2.55;;;;;;;;;;5059552;28;20185;-50
2023/06/15 03:09:23;;;;;;;2.47;2.25;;;;;;;;;;5066740;28;20179;-50
2023/06/15 03:11:50;;;;;;;3.00;2.40;;;;;;;;;;5064076;28;20224;-50
2023/06/15 03:14:19;;;;;;;2.88;2.42;;;;;;;;;;5060673;28;20210;-50
2023/06/15 03:16:48;;;;;;;2.70;2.50;;;;;;;;;;5064658;28;20252;-50
2023/06/15 03:19:15;;;;;;;2.63;2.40;;;;;;;;;;5065475;28;20199;-50
2023/06/15 03:21:41;;;;;;;3.55;2.63;;;;;;;;;;5061845;28;20198;-50
2023/06/15 03:24:08;;;;;;;2.63;2.42;;;;;;;;;;5051319;28;20478;-50
2023/06/15 03:26:35;;;;;;;2.90;2.60;;;;;;;;;;5064354;28;20186;-50
2023/06/15 03:29:02;;;;;;;2.72;2.53;;;;;;;;;;5062356;28;20175;-50
2023/06/15 03:31:28;;;;;;;2.65;2.45;;;;;;;;;;5058708;28;20270;-50
2023/06/15 03:33:55;;;;;;;2.50;2.30;;;;;;;;;;5071818;28;20224;-50
2023/06/15 03:36:24;;;;;;;2.50;2.30;;;;;;;;;;5061439;28;20183;-52
2023/06/15 03:38:50;;;;;;;3.42;2.67;;;;;;;;;;5053794;28;20175;-50
2023/06/15 03:41:16;;;;;;;2.72;2.38;;;;;;;;;;5055804;28;20601;-50
2023/06/15 03:43:42;;;;;;;2.92;2.70;;;;;;;;;;5062385;28;20257;-50
2023/06/15 03:46:08;;;;;;;4.97;2.33;;;;;;;;;;5052620;28;20190;-50
2023/06/15 03:48:34;;;;;;;2.50;2.30;;;;;;;;;;5054662;28;20256;-50
2023/06/15 03:51:00;;;;;;;3.10;2.80;;;;;;;;;;5053320;28;20180;-50
2023/06/15 03:53:26;;;;;;;3.00;2.40;;;;;;;;;;5052632;28;20581;-50
2023/06/15 03:55:52;;;;;;;3.00;2.20;;;;;;;;;;5052704;28;20191;-50
2023/06/15 03:58:18;;;;;;;7.70;3.22;;;;;;;;;;5060465;28;20227;-50
2023/06/15 04:00:47;;;;;;;5.72;3.00;;;;;;;;;;5065163;28;20194;-50
2023/06/15 04:03:14;;;;;;;4.95;2.67;;;;;;;;;;5070278;28;20179;-50
2023/06/15 04:05:42;;;;;;;5.63;2.83;;;;;;;;;;5068708;28;20261;-50
2023/06/15 04:08:08;;;;;;;6.75;3.00;;;;;;;;;;5064086;28;20174;-50
2023/06/15 04:10:34;;;;;;;5.45;3.22;;;;;;;;;;5068570;28;20206;-50
2023/06/15 04:13:00;;;;;;;5.22;2.88;;;;;;;;;;5059216;28;20506;-50
2023/06/15 04:15:26;;;;;;;7.00;3.85;;;;;;;;;;5059966;28;20183;-50
2023/06/15 04:17:52;;;;;;;3.83;2.90;;;;;;;;;;5063163;28;20289;-50
2023/06/15 04:20:19;;;;;;;4.72;2.85;;;;;;;;;;5062545;28;20186;-50
2023/06/15 04:22:45;;;;;;;6.60;2.88;;;;;;;;;;5064721;28;20202;-50
2023/06/15 04:25:12;;;;;;;3.42;2.80;;;;;;;;;;5072843;28;20202;-50
2023/06/15 04:27:39;;;;;;;5.95;2.97;;;;;;;;;;5061338;28;20171;-51
2023/06/15 04:30:06;;;;;;;4.38;3.17;;;;;;;;;;5064050;28;20181;-50
2023/06/15 04:32:32;;;;;;;5.60;2.90;;;;;;;;;;5065156;28;20197;-50
2023/06/15 04:34:58;;;;;;;4.22;3.05;;;;;;;;;;5063582;28;20174;-50
2023/06/15 04:37:28;;;;;;;3.97;2.80;;;;;;;;;;5063410;28;20280;-50
2023/06/15 04:39:56;;;;;;;4.78;3.17;;;;;;;;;;5052113;28;20183;-50
2023/06/15 04:42:22;;;;;;;5.65;3.10;;;;;;;;;;5061833;28;20258;-50
2023/06/15 04:44:47;;;;;;;4.65;3.00;;;;;;;;;;5051800;28;20305;-50
2023/06/15 04:47:13;;;;;;;4.45;3.05;;;;;;;;;;5065716;28;20179;-50
2023/06/15 04:49:42;;;;;;;3.13;2.83;;;;;;;;;;5068933;28;20176;-50
2023/06/15 04:52:09;;;;;;;4.25;2.97;;;;;;;;;;5063918;28;20193;-50
2023/06/15 04:54:34;;;;;;;5.90;3.25;;;;;;;;;;5065626;28;20588;-49
2023/06/15 04:57:00;;;;;;;4.28;3.13;;;;;;;;;;5066331;28;20189;-50
2023/06/15 04:59:27;;;;;;;5.97;2.88;;;;;;;;;;5064792;28;20601;-50
2023/06/15 05:01:53;;;;;;;3.63;2.85;;;;;;;;;;5063282;28;20235;-50
2023/06/15 05:04:20;;;;;;;3.90;2.53;;;;;;;;;;5062777;28;20257;-50
2023/06/15 05:06:46;;;;;;;4.88;2.70;;;;;;;;;;5065988;28;20183;-50
2023/06/15 05:09:12;;;;;;;4.85;3.30;;;;;;;;;;5056632;28;20229;-50
2023/06/15 05:11:38;;;;;;;3.17;2.88;;;;;;;;;;5058886;28;20190;-50
2023/06/15 05:14:04;;;;;;;4.70;3.00;;;;;;;;;;5064531;28;20183;-50
2023/06/15 05:16:30;;;;;;;3.67;3.35;;;;;;;;;;5064283;28;20185;-49
2023/06/15 05:18:56;;;;;;;3.85;3.20;;;;;;;;;;5054617;28;20214;-49
2023/06/15 05:21:22;;;;;;;3.85;3.08;;;;;;;;;;5064402;28;20477;-50
2023/06/15 05:23:48;;;;;;;3.55;3.22;;;;;;;;;;5073352;28;20259;-50
2023/06/15 05:26:15;;;;;;;3.70;3.38;;;;;;;;;;5063331;28;20187;-50
2023/06/15 05:28:41;;;;;;;4.68;3.60;;;;;;;;;;5072444;28;20197;-50
2023/06/15 05:31:08;;;;;;;3.50;2.95;;;;;;;;;;5063493;28;20551;-50
2023/06/15 05:33:34;;;;;;;4.78;3.15;;;;;;;;;;5062066;28;20187;-50
2023/06/15 05:36:00;;;;;;;3.55;3.17;;;;;;;;;;5062469;28;20210;-50
2023/06/15 05:38:26;;;;;;;4.07;3.50;;;;;;;;;;5070807;28;20206;-50
2023/06/15 05:40:52;;;;;;;4.15;3.10;;;;;;;;;;5057434;28;20183;-49
2023/06/15 05:43:19;;;;;;;5.18;3.30;;;;;;;;;;5060107;28;20190;-50
2023/06/15 05:45:47;;;;;;;4.38;3.50;;;;;;;;;;5066289;28;20179;-50
2023/06/15 05:48:13;;;;;;;3.75;3.38;;;;;;;;;;5063914;28;20300;-50
2023/06/15 05:50:39;;;;;;;4.22;3.78;;;;;;;;;;5054775;28;20266;-50
2023/06/15 05:53:05;;;;;;;4.63;3.63;;;;;;;;;;5062780;28;20194;-49
2023/06/15 05:55:31;;;;;;;3.60;3.30;;;;;;;;;;5070436;28;20186;-50
2023/06/15 05:57:57;;;;;;;3.35;2.97;;;;;;;;;;5057096;28;20191;-50
2023/06/15 06:00:25;;;;;;;3.85;3.53;;;;;;;;;;5069577;28;20177;-50
2023/06/15 06:02:52;;;;;;;3.78;3.28;;;;;;;;;;5063074;28;20175;-50
2023/06/15 06:05:18;;;;;;;4.05;3.13;;;;;;;;;;5063464;28;20191;-50
2023/06/15 06:07:47;;;;;;;5.28;3.60;;;;;;;;;;5071618;28;20196;-50
2023/06/15 06:10:13;;;;;;;5.90;3.75;;;;;;;;;;5070611;28;20183;-50
2023/06/15 06:12:39;;;;;;;6.43;3.33;;;;;;;;;;5066076;28;20181;-50
2023/06/15 06:15:05;;;;;;;4.70;3.63;;;;;;;;;;5060338;28;20273;-50
2023/06/15 06:17:31;;;;;;;4.38;3.83;;;;;;;;;;5064672;28;20206;-50
2023/06/15 06:19:57;;;;;;;4.13;3.60;;;;;;;;;;5061382;28;20264;-50
2023/06/15 06:22:23;;;;;;;5.93;3.90;;;;;;;;;;5056460;28;20242;-50
2023/06/15 06:24:49;;;;;;;4.88;3.70;;;;;;;;;;5051228;28;20191;-50
2023/06/15 06:27:15;;;;;;;4.13;3.72;;;;;;;;;;5061307;28;20183;-50
2023/06/15 06:29:41;;;;;;;4.55;3.80;;;;;;;;;;5062073;28;20187;-50
2023/06/15 06:32:07;;;;;;;5.93;3.45;;;;;;;;;;5065483;28;20590;-50
2023/06/15 06:34:35;;;;;;;6.43;3.72;;;;;;;;;;5052247;28;20252;-50
2023/06/15 06:37:02;;;;;;;5.03;4.25;;;;;;;;;;5064804;28;20187;-50
2023/06/15 06:39:28;;;;;;;4.57;3.90;;;;;;;;;;5058481;28;20183;-50
2023/06/15 06:41:54;;;;;;;5.00;3.53;;;;;;;;;;5061844;28;20269;-50
2023/06/15 06:44:21;;;;;;;4.65;3.55;;;;;;;;;;5058834;28;20210;-50
2023/06/15 06:46:46;;;;;;;3.08;2.80;;;;;;;;;;5063527;28;20163;-50
2023/06/15 06:49:12;;;;;;;4.10;3.10;;;;;;;;;;5054460;28;20239;-50
2023/06/15 06:51:38;;;;;;;3.97;3.58;;;;;;;;;;5061057;28;20183;-50
2023/06/15 06:54:04;;;;;;;4.18;3.53;;;;;;;;;;5061397;28;20548;-50
2023/06/15 06:56:30;;;;;;;3.20;2.92;;;;;;;;;;5058359;28;20266;-50
2023/06/15 06:58:56;;;;;;;3.22;2.85;;;;;;;;;;5062175;28;20172;-50
2023/06/15 07:01:22;;;;;;;3.30;3.00;;;;;;;;;;5061815;28;20475;-50
2023/06/15 07:03:48;;;;;;;3.30;2.80;;;;;;;;;;5062541;28;20198;-50
2023/06/15 07:06:14;;;;;;;4.10;3.60;;;;;;;;;;5072174;28;20171;-50
2023/06/15 07:08:40;;;;;;;4.25;3.30;;;;;;;;;;5061646;28;20193;-50
2023/06/15 07:11:06;;;;;;;3.53;3.22;;;;;;;;;;5059798;28;20595;-50
2023/06/15 07:13:32;;;;;;;3.25;2.95;;;;;;;;;;5054837;28;20187;-50
2023/06/15 07:15:58;;;;;;;5.45;3.45;;;;;;;;;;5054572;28;20186;-50
2023/06/15 07:18:25;;;;;;;4.00;3.03;;;;;;;;;;5070129;28;20203;-50
2023/06/15 07:20:53;;;;;;;3.20;2.58;;;;;;;;;;5053815;28;20179;-50
2023/06/15 07:23:23;;;;;;;4.80;3.00;;;;;;;;;;5053929;28;20209;-50
2023/06/15 07:25:52;;;;;;;3.15;2.72;;;;;;;;;;5053386;28;20187;-50
2023/06/15 07:28:19;;;;;;;3.50;3.00;;;;;;;;;;5052604;28;20175;-50
2023/06/15 07:30:46;;;;;;;4.22;2.97;;;;;;;;;;5069556;28;20220;-50
2023/06/15 07:33:12;;;;;;;3.28;2.65;;;;;;;;;;5074091;28;20429;-50
2023/06/15 07:35:38;;;;;;;4.00;3.17;;;;;;;;;;5073784;28;20182;-50
2023/06/15 07:38:04;;;;;;;4.30;2.72;;;;;;;;;;5060523;28;20462;-50
2023/06/15 07:40:30;;;;;;;2.85;2.55;;;;;;;;;;5059448;28;20175;-50
2023/06/15 07:42:56;;;;;;;3.70;2.90;;;;;;;;;;5073558;28;20175;-50
2023/06/15 07:45:22;;;;;;;3.60;2.85;;;;;;;;;;5052599;28;20199;-50
2023/06/15 07:47:48;;;;;;;3.92;2.70;;;;;;;;;;5053903;28;20570;-50
2023/06/15 07:50:14;;;;;;;3.72;2.72;;;;;;;;;;5056799;28;20442;-50
2023/06/15 07:52:40;;;;;;;2.80;2.22;;;;;;;;;;5052762;28;20336;-50
2023/06/15 07:55:06;;;;;;;2.92;2.50;;;;;;;;;;5052917;28;20194;-50
2023/06/15 07:57:34;;;;;;;2.67;2.47;;;;;;;;;;5053631;28;20262;-50
2023/06/15 08:00:00;;;;;;;5.10;2.90;;;;;;;;;;5051053;28;20277;-51
2023/06/15 08:02:26;;;;;;;2.85;2.58;;;;;;;;;;5052971;28;20270;-50
2023/06/15 08:04:52;;;;;;;2.78;2.45;;;;;;;;;;5052788;28;20333;-50
2023/06/15 08:07:18;;;;;;;5.50;2.22;;;;;;;;;;5052552;28;20183;-50
2023/06/15 08:09:44;;;;;;;2.95;2.53;;;;;;;;;;5053651;28;20195;-50
2023/06/15 08:12:10;;;;;;;3.30;2.78;;;;;;;;;;5057690;28;20481;-50
2023/06/15 08:14:36;;;;;;;2.50;2.30;;;;;;;;;;5057684;28;20175;-50
2023/06/15 08:17:02;;;;;;;2.80;2.45;;;;;;;;;;5051904;28;20419;-50
2023/06/15 08:19:28;;;;;;;2.22;1.98;;;;;;;;;;5053774;28;20190;-50
2023/06/15 08:21:54;;;;;;;2.72;2.45;;;;;;;;;;5052766;28;20179;-50
2023/06/15 08:24:20;;;;;;;3.55;2.72;;;;;;;;;;5057012;28;20187;-50
2023/06/15 08:26:48;;;;;;;4.45;2.40;;;;;;;;;;5057226;28;20186;-50
2023/06/15 08:29:14;;;;;;;4.10;2.28;;;;;;;;;;5056823;28;20228;-50
2023/06/15 08:31:40;;;;;;;3.00;2.35;;;;;;;;;;5057016;28;20202;-50
2023/06/15 08:34:07;;;;;;;2.88;2.30;;;;;;;;;;5055158;28;20265;-50
2023/06/15 08:36:33;;;;;;;3.60;2.70;;;;;;;;;;5056401;28;20175;-50
2023/06/15 08:39:00;;;;;;;2.58;2.38;;;;;;;;;;5056872;28;20270;-50
2023/06/15 08:41:27;;;;;;;3.00;2.70;;;;;;;;;;5061019;28;20193;-50
2023/06/15 08:43:53;;;;;;;2.63;2.28;;;;;;;;;;5075025;28;20206;-50
2023/06/15 08:46:20;;;;;;;3.53;2.30;;;;;;;;;;5056205;28;20187;-50
2023/06/15 08:48:48;;;;;;;2.72;2.17;;;;;;;;;;5056711;28;20190;-50
2023/06/15 08:51:14;;;;;;;3.83;2.40;;;;;;;;;;5055217;28;20179;-50
2023/06/15 08:53:43;;;;;;;2.72;2.53;;;;;;;;;;5056387;28;20179;-50
2023/06/15 08:56:11;;;;;;;2.28;2.08;;;;;;;;;;5056031;28;20225;-50
2023/06/15 08:58:37;;;;;;;2.78;2.42;;;;;;;;;;5056789;28;20489;-50
2023/06/15 09:01:03;;;;;;;3.75;2.53;;;;;;;;;;5056682;28;20183;-50
2023/06/15 09:03:31;;;;;;;4.97;2.50;;;;;;;;;;5056636;28;20190;-50
2023/06/15 09:05:57;;;;;;;2.50;2.30;;;;;;;;;;5054383;28;20186;-50
2023/06/15 09:08:24;;;;;;;3.22;2.47;;;;;;;;;;5062547;28;20174;-50
2023/06/15 09:10:50;;;;;;;3.42;2.88;;;;;;;;;;5062614;28;20438;-50
2023/06/15 09:13:16;;;;;;;2.80;2.35;;;;;;;;;;5065778;28;20205;-50
2023/06/15 09:15:43;;;;;;;4.93;2.58;;;;;;;;;;5055652;28;20176;-50
2023/06/15 09:18:14;;;;;;;2.10;1.90;;;;;;;;;;5056027;28;20269;-50
2023/06/15 09:20:40;;;;;;;2.60;2.40;;;;;;;;;;5055395;28;20551;-50
2023/06/15 09:23:09;;;;;;;4.57;2.58;;;;;;;;;;5054146;28;20269;-50
2023/06/15 09:25:36;;;;;;;3.33;2.58;;;;;;;;;;5055749;28;20235;-50
2023/06/15 09:28:04;;;;;;;3.45;2.67;;;;;;;;;;5056175;28;20265;-50
2023/06/15 09:30:31;;;;;;;3.75;2.63;;;;;;;;;;5076377;28;20694;-51
2023/06/15 09:32:57;;;;;;;4.03;2.20;;;;;;;;;;5075367;28;20162;-50
2023/06/15 09:35:24;;;;;;;4.82;2.58;;;;;;;;;;5069299;28;20536;-50
2023/06/15 09:37:55;;;;;;;3.70;2.72;;;;;;;;;;5063701;28;20186;-50
2023/06/15 09:40:21;;;;;;;5.25;2.90;;;;;;;;;;5051749;28;20205;-50
2023/06/15 09:42:55;;;;;;;3.40;2.45;;;;;;;;;;5075788;28;20601;-50
2023/06/15 09:45:21;;;;;;;2.60;2.40;;;;;;;;;;5058413;28;20202;-50
2023/06/15 09:47:53;;;;;;;2.50;2.30;;;;;;;;;;5065238;28;20182;-50
2023/06/15 09:50:18;;;;;;;2.70;2.40;;;;;;;;;;5060967;28;20183;-50
2023/06/15 09:52:49;;;;;;;5.80;2.85;;;;;;;;;;5061362;28;20259;-50
2023/06/15 09:55:16;;;;;;;2.83;2.53;;;;;;;;;;5060893;28;20435;-50
2023/06/15 09:57:42;;;;;;;6.07;3.08;;;;;;;;;;5055235;28;20879;-50
2023/06/15 10:00:09;;;;;;;3.67;2.65;;;;;;;;;;5063904;28;20261;-50
2023/06/15 10:02:36;;;;;;;5.03;3.08;;;;;;;;;;5060875;28;20176;-50
2023/06/15 10:05:03;;;;;;;4.13;2.85;;;;;;;;;;5071125;28;20280;-50
2023/06/15 10:07:29;;;;;;;3.30;2.38;;;;;;;;;;5067132;28;20167;-50
2023/06/15 10:09:56;;;;;;;3.97;2.42;;;;;;;;;;5065375;28;20221;-50
2023/06/15 10:12:26;;;;;;;3.60;2.47;;;;;;;;;;5060012;28;20182;-50
2023/06/15 10:14:56;;;;;;;3.05;2.20;;;;;;;;;;5063680;28;20610;-50
2023/06/15 10:17:30;;;;;;;3.63;2.20;;;;;;;;;;5060235;28;20262;-50
2023/06/15 10:19:58;;;;;;;3.80;2.78;;;;;;;;;;5059970;28;20178;-50
2023/06/15 10:22:26;;;;;;;4.22;2.53;;;;;;;;;;5058803;28;20582;-50
2023/06/15 10:24:53;;;;;;;8.18;2.60;;;;;;;;;;5064841;28;20202;-50
2023/06/15 10:27:19;;;;;;;2.75;2.55;;;;;;;;;;5061464;28;20206;-50
2023/06/15 10:29:55;;;;;;;3.65;2.55;;;;;;;;;;5061168;28;20183;-50
2023/06/15 10:32:26;;;;;;;4.40;2.78;;;;;;;;;;5060317;28;20416;-50
2023/06/15 10:34:57;;;;;;;4.40;2.90;;;;;;;;;;5061751;28;20557;-50
2023/06/15 10:37:27;;;;;;;4.35;3.20;;;;;;;;;;5059805;28;20182;-50
2023/06/15 10:39:54;;;;;;;6.38;2.95;;;;;;;;;;5064723;28;20554;-50
2023/06/15 10:42:20;;;;;;;4.90;2.63;;;;;;;;;;5063894;28;20241;-50
2023/06/15 10:44:46;;;;;;;3.75;2.80;;;;;;;;;;5053554;28;20215;-50
2023/06/15 10:47:15;;;;;;;4.40;2.90;;;;;;;;;;5061956;28;20189;-50
2023/06/15 10:49:51;;;;;;;5.93;3.63;;;;;;;;;;5064132;28;20436;-50
2023/06/15 10:52:17;;;;;;;8.45;3.00;;;;;;;;;;5053125;28;20190;-50
2023/06/15 10:54:44;;;;;;;6.35;3.10;;;;;;;;;;5055118;28;20206;-50
2023/06/15 10:57:15;;;;;;;4.35;2.58;;;;;;;;;;5055322;28;20187;-50
2023/06/15 10:59:42;;;;;;;4.97;2.67;;;;;;;;;;5068964;28;20184;-50
2023/06/15 11:02:28;;;;;;;5.03;2.97;;;;;;;;;;5052905;28;20198;-50
2023/06/15 11:05:00;;;;;;;5.05;3.10;;;;;;;;;;5048581;28;20284;-50
2023/06/15 11:07:39;;;;;;;3.88;2.95;;;;;;;;;;5054408;28;20176;-50
2023/06/15 11:10:22;;;;;;;4.82;3.05;;;;;;;;;;5065058;28;20186;-50
2023/06/15 11:12:51;;;;;;;5.93;3.20;;;;;;;;;;5056808;28;20573;-50
2023/06/15 11:15:17;;;;;;;4.10;2.72;;;;;;;;;;5069133;28;20213;-50
2023/06/15 11:17:53;;;;;;;4.78;2.92;;;;;;;;;;5051861;28;20646;-50
2023/06/15 11:20:38;;;;;;;4.45;3.10;;;;;;;;;;5060078;28;20197;-50
2023/06/15 11:23:09;;;;;;;4.15;2.70;;;;;;;;;;5060039;28;20256;-50
2023/06/15 11:25:36;;;;;;;3.03;2.40;;;;;;;;;;5052055;28;20218;-50
2023/06/15 11:28:02;;;;;;;4.38;3.17;;;;;;;;;;5057236;28;20171;-50
2023/06/15 11:30:28;;;;;;;6.13;2.72;;;;;;;;;;5060974;28;20211;-50
2023/06/15 11:32:55;;;;;;;3.88;2.83;;;;;;;;;;5061413;28;20233;-51
2023/06/15 11:35:21;;;;;;;10.48;3.30;;;;;;;;;;5048999;28;20191;-51
2023/06/15 11:37:47;;;;;;;8.45;2.90;;;;;;;;;;5056570;28;20186;-50
2023/06/15 11:40:16;;;;;;;5.90;3.13;;;;;;;;;;5060316;28;20179;-50
2023/06/15 11:42:42;;;;;;;5.28;2.80;;;;;;;;;;5059512;28;20221;-50
2023/06/15 11:45:12;;;;;;;4.47;2.60;;;;;;;;;;5053238;28;20207;-50
2023/06/15 11:47:41;;;;;;;5.75;3.20;;;;;;;;;;5063628;28;20488;-50
2023/06/15 11:50:07;;;;;;;4.15;3.15;;;;;;;;;;5056914;28;20191;-50
2023/06/15 11:52:33;;;;;;;5.15;3.40;;;;;;;;;;5059671;28;20182;-50
2023/06/15 11:55:09;;;;;;;3.58;2.88;;;;;;;;;;5058712;28;20262;-50
2023/06/15 11:57:35;;;;;;;6.00;3.00;;;;;;;;;;5055180;28;20231;-51
2023/06/15 12:00:01;;;;;;;5.68;3.17;;;;;;;;;;5065924;28;20186;-50
2023/06/15 12:02:27;;;;;;;3.40;3.10;;;;;;;;;;5070498;28;20566;-50
2023/06/15 12:04:57;;;;;;;5.03;3.20;;;;;;;;;;5057126;28;20210;-50
2023/06/15 12:07:23;;;;;;;5.85;2.97;;;;;;;;;;5052966;28;20206;-50
2023/06/15 12:09:49;;;;;;;4.28;2.80;;;;;;;;;;5057766;28;20606;-50
2023/06/15 12:12:34;;;;;;;4.47;3.00;;;;;;;;;;5057715;28;20486;-50
2023/06/15 12:15:01;;;;;;;5.18;3.15;;;;;;;;;;5062969;28;20292;-50
2023/06/15 12:17:28;;;;;;;3.70;2.90;;;;;;;;;;5057087;28;20175;-50
2023/06/15 12:20:00;;;;;;;4.28;2.80;;;;;;;;;;5070739;28;20167;-50
2023/06/15 12:22:46;;;;;;;4.03;3.03;;;;;;;;;;5070403;28;20344;-51
2023/06/15 12:25:12;;;;;;;5.38;2.67;;;;;;;;;;5052356;28;20206;-50
2023/06/15 12:27:49;;;;;;;3.83;3.08;;;;;;;;;;5056153;28;20214;-50
2023/06/15 12:30:20;;;;;;;4.88;2.75;;;;;;;;;;5057335;28;20194;-49
2023/06/15 12:32:46;;;;;;;3.90;2.75;;;;;;;;;;5056941;28;20424;-50
2023/06/15 12:35:31;;;;;;;6.10;2.70;;;;;;;;;;5056741;28;20455;-50
2023/06/15 12:37:57;;;;;;;6.55;2.70;;;;;;;;;;5056684;28;20190;-50
2023/06/15 12:40:24;;;;;;;4.97;2.60;;;;;;;;;;5055474;28;20187;-50
2023/06/15 12:43:06;;;;;;;9.88;2.90;;;;;;;;;;5061807;28;20221;-50
2023/06/15 12:45:35;;;;;;;5.18;2.50;;;;;;;;;;5056005;28;20241;-50
2023/06/15 12:48:02;;;;;;;8.82;2.58;;;;;;;;;;5056842;28;20167;-50
2023/06/15 12:50:29;;;;;;;6.40;2.78;;;;;;;;;;5055010;28;20168;-50
2023/06/15 12:52:57;;;;;;;4.32;2.70;;;;;;;;;;5057587;28;20335;-50
2023/06/15 12:55:23;;;;;;;5.03;2.90;;;;;;;;;;5058375;28;20179;-50
2023/06/15 12:57:49;;;;;;;3.83;2.67;;;;;;;;;;5055720;28;20574;-50
2023/06/15 13:00:15;;;;;;;11.32;3.03;;;;;;;;;;5063288;28;20198;-51
2023/06/15 13:02:41;;;;;;;4.38;2.88;;;;;;;;;;5064352;28;20191;-50
2023/06/15 13:05:09;;;;;;;6.72;2.55;;;;;;;;;;5064184;28;20233;-51
2023/06/15 13:07:35;;;;;;;7.75;3.22;;;;;;;;;;5056002;28;20179;-50
2023/06/15 13:10:01;;;;;;;7.55;3.33;;;;;;;;;;5060706;28;20181;-50
2023/06/15 13:12:27;;;;;;;9.05;2.95;;;;;;;;;;5063112;28;20598;-50
2023/06/15 13:14:54;;;;;;;5.93;2.85;;;;;;;;;;5061097;28;20186;-51
2023/06/15 13:17:20;;;;;;;4.88;2.67;;;;;;;;;;5060036;28;20736;-50
2023/06/15 13:19:46;;;;;;;11.00;3.05;;;;;;;;;;5063247;28;20275;-50
2023/06/15 13:22:12;;;;;;;9.60;2.63;;;;;;;;;;5064994;28;20303;-50
2023/06/15 13:24:38;;;;;;;3.20;2.40;;;;;;;;;;5058291;28;20203;-50
2023/06/15 13:27:08;;;;;;;4.80;2.63;;;;;;;;;;5066906;28;20198;-50
2023/06/15 13:29:35;;;;;;;2.95;2.65;;;;;;;;;;5057587;28;20181;-50
2023/06/15 13:32:03;;;;;;;4.40;2.45;;;;;;;;;;5063641;28;20190;-50
2023/06/15 13:34:32;;;;;;;5.72;2.45;;;;;;;;;;5063929;28;20659;-50
2023/06/15 13:36:58;;;;;;;5.30;2.47;;;;;;;;;;5062858;28;20187;-50
2023/06/15 13:39:24;;;;;;;3.70;2.65;;;;;;;;;;5062597;28;20187;-50
2023/06/15 13:41:50;;;;;;;3.65;2.50;;;;;;;;;;5067572;28;20313;-50
2023/06/15 13:44:16;;;;;;;5.22;2.60;;;;;;;;;;5063219;28;20214;-50
2023/06/15 13:46:42;;;;;;;6.50;3.10;;;;;;;;;;5066819;28;20202;-51
2023/06/15 13:49:09;;;;;;;7.55;2.85;;;;;;;;;;5060956;28;20562;-50
2023/06/15 13:51:37;;;;;;;8.80;2.45;;;;;;;;;;5056732;28;20468;-50
2023/06/15 13:54:04;;;;;;;4.15;2.63;;;;;;;;;;5060427;28;20260;-50
2023/06/15 13:56:30;;;;;;;5.13;2.58;;;;;;;;;;5059569;28;20187;-50
2023/06/15 13:58:57;;;;;;;6.05;2.65;;;;;;;;;;5058760;28;20209;-50
2023/06/15 14:01:23;;;;;;;4.00;2.80;;;;;;;;;;5066232;28;20182;-50
2023/06/15 14:03:49;;;;;;;6.28;2.78;;;;;;;;;;5054937;28;20206;-50
2023/06/15 14:06:15;;;;;;;4.00;2.50;;;;;;;;;;5066475;28;20621;-50
2023/06/15 14:08:41;;;;;;;5.72;2.60;;;;;;;;;;5057335;28;20222;-50
2023/06/15 14:11:07;;;;;;;2.58;2.25;;;;;;;;;;5063692;28;20522;-50
2023/06/15 14:13:33;;;;;;;3.40;2.58;;;;;;;;;;5060566;28;20172;-50
2023/06/15 14:15:59;;;;;;;3.08;2.33;;;;;;;;;;5066493;28;20435;-50
2023/06/15 14:18:25;;;;;;;3.25;2.58;;;;;;;;;;5056875;28;20473;-50
2023/06/15 14:20:51;;;;;;;4.22;2.53;;;;;;;;;;5062587;28;20556;-50
2023/06/15 14:23:17;;;;;;;3.67;2.47;;;;;;;;;;5059071;28;20194;-50
2023/06/15 14:25:43;;;;;;;5.32;2.33;;;;;;;;;;5061398;28;20214;-50
2023/06/15 14:28:12;;;;;;;5.53;2.67;;;;;;;;;;5066531;28;20185;-50
2023/06/15 14:30:38;;;;;;;3.35;2.45;;;;;;;;;;5063034;28;20187;-50
2023/06/15 14:33:04;;;;;;;3.30;2.75;;;;;;;;;;5062726;28;20186;-50
2023/06/15 14:35:30;;;;;;;4.22;2.17;;;;;;;;;;5056382;28;20277;-50
2023/06/15 14:37:56;;;;;;;3.50;2.38;;;;;;;;;;5065811;28;20266;-50
2023/06/15 14:40:21;;;;;;;4.53;3.17;;;;;;;;;;5057592;28;20236;-50
2023/06/15 14:42:48;;;;;;;5.15;2.60;;;;;;;;;;5066591;28;20236;-50